createdAt,value
2023-04-06T00:04:29.532Z,100.00
2023-04-06T00:09:32.680Z,100.00
2023-04-06T00:14:37.288Z,100.00
2023-04-06T00:19:40.537Z,100.00
2023-04-06T00:24:43.856Z,100.00
2023-04-06T00:29:48.485Z,100.00
2023-04-06T00:34:51.843Z,100.00
2023-04-06T00:39:54.988Z,100.00
2023-04-06T00:45:02.453Z,100.00
2023-04-06T00:50:06.522Z,100.00
2023-04-06T00:55:11.304Z,100.00
2023-04-06T01:00:20.605Z,100.00
2023-04-06T01:05:28.107Z,100.00
2023-04-06T01:10:34.730Z,100.00
2023-04-06T01:15:48.603Z,100.00
2023-04-06T01:20:57.655Z,100.00
2023-04-06T01:26:04.475Z,100.00
2023-04-06T01:31:09.822Z,100.00
2023-04-06T01:36:21.275Z,100.00
2023-04-06T01:41:32.594Z,100.00
2023-04-06T01:46:36.017Z,100.00
2023-04-06T01:51:41.787Z,100.00
2023-04-06T01:56:51.550Z,100.00
2023-04-06T02:02:04.062Z,100.00
2023-04-06T02:07:08.958Z,100.00
2023-04-06T02:12:13.737Z,100.00
2023-04-06T02:17:17.278Z,100.00
2023-04-06T02:22:20.918Z,100.00
2023-04-06T02:27:25.632Z,100.00
2023-04-06T02:32:29.006Z,100.00
2023-04-06T02:37:33.250Z,100.00
2023-04-06T02:42:37.840Z,100.00
2023-04-06T02:47:42.335Z,100.00
2023-04-06T02:52:46.834Z,100.00
2023-04-06T02:57:51.808Z,100.00
2023-04-06T03:02:58.718Z,100.00
2023-04-06T03:08:03.673Z,100.00
2023-04-06T03:13:18.715Z,100.00
2023-04-06T03:18:27.859Z,100.00
2023-04-06T03:23:33.174Z,100.00
2023-04-06T03:28:39.983Z,100.00
2023-04-06T03:33:44.120Z,100.00
2023-04-06T03:38:54.639Z,100.00
2023-04-06T03:43:59.526Z,100.00
2023-04-06T03:49:03.267Z,100.00
2023-04-06T03:54:07.228Z,100.00
2023-04-06T03:59:12.034Z,100.00
2023-04-06T04:04:15.427Z,100.00
2023-04-06T04:09:18.793Z,100.00
2023-04-06T04:14:23.586Z,100.00
2023-04-06T04:19:27.304Z,100.00
2023-04-06T04:24:32.663Z,100.00
2023-04-06T04:29:37.595Z,100.00
2023-04-06T04:34:47.527Z,100.00
2023-04-06T04:40:02.175Z,100.00
2023-04-06T04:45:11.236Z,100.00
2023-04-06T04:50:16.247Z,100.00
2023-04-06T04:55:22.289Z,100.00
2023-04-06T05:00:31.881Z,100.00
2023-04-06T05:05:36.896Z,100.00
2023-04-06T05:10:42.304Z,100.00
2023-04-06T05:15:47.334Z,100.00
2023-04-06T05:21:00.031Z,100.00
2023-04-06T05:26:14.899Z,100.00
2023-04-06T05:31:19.974Z,100.00
2023-04-06T05:36:27.330Z,100.00
2023-04-06T05:41:30.697Z,100.00
2023-04-06T05:46:35.709Z,100.00
2023-04-06T05:51:40.632Z,100.00
2023-04-06T05:56:44.576Z,100.00
2023-04-06T06:01:50.863Z,100.00
2023-04-06T06:06:56.000Z,100.00
2023-04-06T06:12:05.231Z,100.00
2023-04-06T06:17:10.655Z,100.00
2023-04-06T06:22:13.984Z,100.00
2023-04-06T06:27:21.540Z,100.00
2023-04-06T06:32:27.256Z,100.00
2023-04-06T06:37:31.677Z,97.38
2023-04-06T06:42:36.822Z,90.58
2023-04-06T06:47:52.198Z,87.24
2023-04-06T06:52:57.241Z,81.20
2023-04-06T06:58:00.503Z,73.76
2023-04-06T07:03:05.636Z,67.09
2023-04-06T07:08:09.140Z,66.70
2023-04-06T07:13:13.378Z,64.42
2023-04-06T07:18:18.516Z,63.15
2023-04-06T07:23:22.608Z,56.31
2023-04-06T07:28:25.837Z,57.81
2023-04-06T07:33:32.482Z,53.07
2023-04-06T07:38:36.461Z,50.82
2023-04-06T07:43:41.094Z,49.00
2023-04-06T07:48:46.409Z,47.89
2023-04-06T07:53:50.473Z,49.14
2023-04-06T07:58:56.633Z,45.00
2023-04-06T08:04:03.479Z,46.45
2023-04-06T08:09:06.900Z,46.94
2023-04-06T08:14:10.278Z,44.82
2023-04-06T08:19:18.185Z,44.19
2023-04-06T08:24:21.457Z,43.83
2023-04-06T08:29:24.708Z,43.51
2023-04-06T08:34:29.442Z,43.54
2023-04-06T08:39:34.753Z,43.01
2023-04-06T08:44:38.907Z,42.99
2023-04-06T08:49:45.716Z,41.89
2023-04-06T08:54:49.843Z,43.15
2023-04-06T08:59:53.731Z,41.57
2023-04-06T09:04:59.787Z,44.12
2023-04-06T09:10:03.305Z,42.38
2023-04-06T09:15:07.538Z,42.69
2023-04-06T09:20:14.161Z,42.13
2023-04-06T09:25:22.412Z,39.86
2023-04-06T09:30:26.030Z,40.53
2023-04-06T09:35:32.409Z,40.25
2023-04-06T09:40:35.650Z,40.86
2023-04-06T09:45:39.221Z,41.35
2023-04-06T09:50:44.130Z,38.17
2023-04-06T09:55:48.540Z,38.41
2023-04-06T10:01:00.726Z,41.64
2023-04-06T10:06:09.474Z,39.54
2023-04-06T10:11:13.146Z,39.89
2023-04-06T10:16:16.793Z,38.92
2023-04-06T10:21:25.968Z,38.75
2023-04-06T10:26:29.550Z,38.40
2023-04-06T10:31:33.324Z,39.39
2023-04-06T10:36:38.980Z,39.97
2023-04-06T10:41:45.823Z,38.50
2023-04-06T10:46:55.949Z,39.58
2023-04-06T10:52:01.213Z,38.19
2023-04-06T10:57:04.587Z,38.60
2023-04-06T11:02:07.898Z,39.26
2023-04-06T11:07:12.722Z,38.85
2023-04-06T11:12:23.319Z,37.25
2023-04-06T11:17:30.233Z,35.70
2023-04-06T11:22:35.929Z,38.24
2023-04-06T11:27:39.970Z,37.14
2023-04-06T11:32:44.524Z,37.56
2023-04-06T11:37:50.437Z,37.69
2023-04-06T11:42:57.116Z,37.67
2023-04-06T11:48:01.684Z,36.78
2023-04-06T11:53:06.362Z,36.74
2023-04-06T11:58:09.675Z,35.75
2023-04-06T12:03:13.238Z,36.04
2023-04-06T12:08:18.085Z,35.36
2023-04-06T12:13:21.392Z,38.67
2023-04-06T12:18:24.649Z,38.17
2023-04-06T12:23:29.180Z,37.68
2023-04-06T12:28:32.295Z,37.23
2023-04-06T12:33:35.522Z,36.06
2023-04-06T12:38:41.356Z,35.85
2023-04-06T12:43:45.321Z,37.92
2023-04-06T12:48:49.125Z,35.77
2023-04-06T12:53:54.065Z,35.99
2023-04-06T12:58:57.531Z,37.86
2023-04-06T13:04:01.134Z,38.71
2023-04-06T13:09:06.653Z,37.87
2023-04-06T13:14:09.865Z,35.65
2023-04-06T13:19:13.078Z,36.99
2023-04-06T13:24:18.285Z,36.89
2023-04-06T13:29:21.858Z,36.69
2023-04-06T13:34:25.257Z,36.27
2023-04-06T13:39:29.921Z,36.17
2023-04-06T13:44:33.890Z,36.99
2023-04-06T13:49:37.986Z,35.12
2023-04-06T13:54:43.068Z,38.66
2023-04-06T13:59:46.327Z,36.71
2023-04-06T14:04:49.472Z,37.81
2023-04-06T14:09:54.107Z,39.12
2023-04-06T14:14:57.308Z,36.92
2023-04-06T14:20:01.055Z,36.82
2023-04-06T14:25:06.128Z,36.17
2023-04-06T14:30:10.519Z,37.81
2023-04-06T14:35:14.038Z,36.62
2023-04-06T14:40:18.986Z,37.68
2023-04-06T14:45:22.816Z,38.28
2023-04-06T14:50:26.384Z,36.46
2023-04-06T14:55:31.073Z,37.09
2023-04-06T15:00:34.261Z,35.22
2023-04-06T15:05:37.454Z,37.72
2023-04-06T15:10:41.993Z,38.23
2023-04-06T15:15:45.094Z,37.46
2023-04-06T15:20:48.780Z,38.63
2023-04-06T15:25:54.094Z,38.04
2023-04-06T15:30:58.491Z,38.80
2023-04-06T15:36:07.148Z,37.20
2023-04-06T15:41:14.254Z,38.21
2023-04-06T15:46:17.292Z,38.48
2023-04-06T15:51:20.781Z,36.79
2023-04-06T15:56:25.509Z,38.00
2023-04-06T16:01:28.878Z,38.43
2023-04-06T16:06:32.604Z,38.58
2023-04-06T16:11:37.758Z,39.90
2023-04-06T16:16:43.405Z,38.90
2023-04-06T16:21:47.595Z,40.48
2023-04-06T16:26:52.392Z,41.54
2023-04-06T16:31:56.410Z,41.42
2023-04-06T16:36:59.663Z,42.38
2023-04-06T16:42:04.289Z,44.19
2023-04-06T16:47:07.747Z,47.64
2023-04-06T16:52:11.232Z,50.46
2023-04-06T16:57:16.107Z,48.94
2023-04-06T17:02:19.390Z,53.03
2023-04-06T17:07:26.662Z,56.56
2023-04-06T17:12:31.413Z,55.10
2023-04-06T17:17:34.710Z,53.64
2023-04-06T17:22:37.851Z,57.58
2023-04-06T17:27:42.577Z,70.95
2023-04-06T17:32:46.304Z,71.55
2023-04-06T17:37:49.542Z,70.59
2023-04-06T17:42:54.051Z,74.82
2023-04-06T17:47:57.137Z,78.19
2023-04-06T17:53:00.312Z,80.27
2023-04-06T17:58:06.028Z,82.01
2023-04-06T18:03:09.147Z,85.49
2023-04-06T18:08:12.762Z,84.64
2023-04-06T18:13:17.502Z,84.62
2023-04-06T18:18:20.748Z,93.13
2023-04-06T18:23:24.171Z,90.49
2023-04-06T18:28:28.927Z,89.63
2023-04-06T18:33:32.484Z,89.17
2023-04-06T18:38:35.565Z,88.93
2023-04-06T18:43:40.338Z,90.25
2023-04-06T18:48:44.346Z,89.68
2023-04-06T18:53:47.866Z,92.56
2023-04-06T18:58:52.447Z,92.21
2023-04-06T19:03:56.649Z,91.00
2023-04-06T19:09:02.367Z,92.71
2023-04-06T19:14:07.379Z,94.13
2023-04-06T19:19:10.936Z,96.50
2023-04-06T19:24:14.724Z,95.74
2023-04-06T19:29:19.506Z,97.35
2023-04-06T19:34:24.047Z,98.60
2023-04-06T19:39:27.947Z,97.33
2023-04-06T19:44:33.506Z,97.72
2023-04-06T19:49:40.972Z,97.92
2023-04-06T19:54:46.937Z,98.37
2023-04-06T19:59:51.549Z,97.71
2023-04-06T20:04:54.647Z,97.40
2023-04-06T20:09:57.801Z,97.66
2023-04-06T20:15:02.477Z,100.00
2023-04-06T20:20:09.617Z,100.00
2023-04-06T20:25:13.165Z,100.00
2023-04-06T20:30:18.009Z,100.00
2023-04-06T20:35:21.353Z,100.00
2023-04-06T20:40:25.951Z,100.00
2023-04-06T20:45:30.923Z,100.00
2023-04-06T20:50:36.351Z,100.00
2023-04-06T20:55:41.988Z,100.00
2023-04-06T21:00:46.671Z,100.00
2023-04-06T21:05:53.308Z,100.00
2023-04-06T21:10:57.093Z,100.00
2023-04-06T21:16:02.194Z,100.00
2023-04-06T21:21:05.880Z,100.00
2023-04-06T21:26:09.078Z,100.00
2023-04-06T21:31:16.449Z,100.00
2023-04-06T21:36:19.694Z,100.00
2023-04-06T21:41:22.938Z,100.00
2023-04-06T21:46:28.053Z,100.00
2023-04-06T21:51:32.326Z,100.00
2023-04-06T21:56:35.605Z,100.00
2023-04-06T22:01:40.224Z,100.00
2023-04-06T22:06:43.603Z,100.00
2023-04-06T22:11:46.860Z,100.00
2023-04-06T22:16:51.440Z,100.00
2023-04-06T22:21:54.850Z,100.00
2023-04-06T22:26:58.406Z,100.00
2023-04-06T22:32:03.172Z,100.00
2023-04-06T22:37:06.350Z,100.00
2023-04-06T22:42:09.419Z,100.00
2023-04-06T22:47:14.466Z,100.00
2023-04-06T22:52:17.834Z,100.00
2023-04-06T22:57:22.581Z,100.00
2023-04-06T23:02:27.544Z,100.00
2023-04-06T23:07:32.692Z,100.00
2023-04-06T23:12:36.037Z,100.00
2023-04-06T23:17:41.944Z,100.00
2023-04-06T23:22:45.138Z,100.00
2023-04-06T23:27:48.293Z,100.00
2023-04-06T23:32:52.820Z,100.00
2023-04-06T23:37:56.006Z,100.00
2023-04-06T23:42:59.113Z,100.00
2023-04-06T23:48:03.850Z,100.00
2023-04-06T23:53:07.095Z,100.00
2023-04-06T23:58:10.409Z,100.00
